sensor_id;sensor_type;location;lat;lon;timestamp;pressure;altitude;pressure_sealevel;temperature;humidity
37792;BME280;29527;55.766;37.570;2023-11-21T00:00:14;99348.03;;;-6.11;54.11
37792;BME280;29527;55.766;37.570;2023-11-21T00:02:41;99343.75;;;-6.14;53.61
37792;BME280;29527;55.766;37.570;2023-11-21T00:05:08;99293.94;;;-6.42;53.72
37792;BME280;29527;55.766;37.570;2023-11-21T00:07:36;99340.28;;;-6.14;53.78
37792;BME280;29527;55.766;37.570;2023-11-21T00:10:03;99344.59;;;-6.13;54.15
37792;BME280;29527;55.766;37.570;2023-11-21T00:12:31;99344.59;;;-6.13;53.61
37792;BME280;29527;55.766;37.570;2023-11-21T00:14:57;99342.13;;;-6.20;53.99
37792;BME280;29527;55.766;37.570;2023-11-21T00:17:23;99344.13;;;-6.34;54.19
37792;BME280;29527;55.766;37.570;2023-11-21T00:19:50;99340.78;;;-6.41;54.43
37792;BME280;29527;55.766;37.570;2023-11-21T00:22:17;99301.44;;;-6.72;54.58
37792;BME280;29527;55.766;37.570;2023-11-21T00:24:43;99341.59;;;-6.37;54.50
37792;BME280;29527;55.766;37.570;2023-11-21T00:27:09;99343.34;;;-6.38;54.19
37792;BME280;29527;55.766;37.570;2023-11-21T00:29:35;99322.47;;;-6.36;54.00
37792;BME280;29527;55.766;37.570;2023-11-21T00:32:01;99339.66;;;-6.26;53.82
37792;BME280;29527;55.766;37.570;2023-11-21T00:34:27;99337.13;;;-6.30;54.03
37792;BME280;29527;55.766;37.570;2023-11-21T00:36:53;99331.03;;;-6.31;53.71
37792;BME280;29527;55.766;37.570;2023-11-21T00:39:18;99348.28;;;-6.24;54.04
37792;BME280;29527;55.766;37.570;2023-11-21T00:41:44;99340.53;;;-6.27;53.97
37792;BME280;29527;55.766;37.570;2023-11-21T00:44:13;99339.59;;;-6.24;54.06
37792;BME280;29527;55.766;37.570;2023-11-21T00:46:39;99338.72;;;-6.23;54.12
37792;BME280;29527;55.766;37.570;2023-11-21T00:49:05;99335.22;;;-6.22;54.16
37792;BME280;29527;55.766;37.570;2023-11-21T00:51:30;99336.25;;;-6.31;54.10
37792;BME280;29527;55.766;37.570;2023-11-21T00:53:56;99331.91;;;-6.30;53.89
37792;BME280;29527;55.766;37.570;2023-11-21T00:56:22;99326.63;;;-6.26;54.17
37792;BME280;29527;55.766;37.570;2023-11-21T00:58:47;99336.97;;;-6.23;54.22
37792;BME280;29527;55.766;37.570;2023-11-21T01:01:16;99328.28;;;-6.22;53.77
37792;BME280;29527;55.766;37.570;2023-11-21T01:03:42;99334.38;;;-6.24;54.07
37792;BME280;29527;55.766;37.570;2023-11-21T01:06:08;99329.25;;;-6.27;54.26
37792;BME280;29527;55.766;37.570;2023-11-21T01:08:34;99338.69;;;-6.22;53.95
37792;BME280;29527;55.766;37.570;2023-11-21T01:11:01;99336.94;;;-6.21;54.01
37792;BME280;29527;55.766;37.570;2023-11-21T01:13:27;99321.44;;;-6.27;53.74
37792;BME280;29527;55.766;37.570;2023-11-21T01:15:55;99330.13;;;-6.28;53.98
37792;BME280;29527;55.766;37.570;2023-11-21T01:18:22;99308.75;;;-6.44;53.82
37792;BME280;29527;55.766;37.570;2023-11-21T01:20:51;99270.00;;;-6.61;53.79
37792;BME280;29527;55.766;37.570;2023-11-21T01:23:18;99334.31;;;-6.21;53.71
37792;BME280;29527;55.766;37.570;2023-11-21T01:25:43;99327.38;;;-6.21;53.59
37792;BME280;29527;55.766;37.570;2023-11-21T01:28:09;99330.88;;;-6.22;53.70
37792;BME280;29527;55.766;37.570;2023-11-21T01:30:35;99323.84;;;-6.18;53.94
37792;BME280;29527;55.766;37.570;2023-11-21T01:33:01;99326.50;;;-6.20;53.40
37792;BME280;29527;55.766;37.570;2023-11-21T01:35:26;99326.56;;;-6.23;53.81
37792;BME280;29527;55.766;37.570;2023-11-21T01:37:52;99335.38;;;-6.30;53.88
37792;BME280;29527;55.766;37.570;2023-11-21T01:40:18;99332.03;;;-6.37;53.87
37792;BME280;29527;55.766;37.570;2023-11-21T01:42:44;99323.44;;;-6.42;54.05
37792;BME280;29527;55.766;37.570;2023-11-21T01:45:10;99286.66;;;-6.70;53.80
37792;BME280;29527;55.766;37.570;2023-11-21T01:47:38;99334.75;;;-6.43;53.46
37792;BME280;29527;55.766;37.570;2023-11-21T01:50:06;99334.75;;;-6.43;53.62
37792;BME280;29527;55.766;37.570;2023-11-21T01:52:34;99346.03;;;-6.42;53.55
37792;BME280;29527;55.766;37.570;2023-11-21T01:55:00;99318.53;;;-6.57;53.67
37792;BME280;29527;55.766;37.570;2023-11-21T01:57:26;99338.22;;;-6.44;53.83
37792;BME280;29527;55.766;37.570;2023-11-21T01:59:54;99330.41;;;-6.44;53.52
37792;BME280;29527;55.766;37.570;2023-11-21T02:02:20;99337.41;;;-6.44;53.58
37792;BME280;29527;55.766;37.570;2023-11-21T02:04:45;99279.00;;;-6.80;53.48
37792;BME280;29527;55.766;37.570;2023-11-21T02:07:11;99334.91;;;-6.51;53.46
37792;BME280;29527;55.766;37.570;2023-11-21T02:09:37;99330.56;;;-6.52;53.15
37792;BME280;29527;55.766;37.570;2023-11-21T02:12:08;99335.69;;;-6.45;53.36
37792;BME280;29527;55.766;37.570;2023-11-21T02:14:36;99338.97;;;-6.37;53.13
37792;BME280;29527;55.766;37.570;2023-11-21T02:17:02;99323.34;;;-6.37;52.72
37792;BME280;29527;55.766;37.570;2023-11-21T02:19:29;99338.84;;;-6.31;52.62
37792;BME280;29527;55.766;37.570;2023-11-21T02:22:15;99338.59;;;-6.17;52.17
37792;BME280;29527;55.766;37.570;2023-11-21T02:24:41;99336.91;;;-6.20;52.62
37792;BME280;29527;55.766;37.570;2023-11-21T02:27:08;99339.53;;;-6.21;52.04
37792;BME280;29527;55.766;37.570;2023-11-21T02:29:33;99341.31;;;-6.23;52.48
37792;BME280;29527;55.766;37.570;2023-11-21T02:31:59;99351.78;;;-6.25;52.10
37792;BME280;29527;55.766;37.570;2023-11-21T02:34:25;99340.47;;;-6.24;52.11
37792;BME280;29527;55.766;37.570;2023-11-21T02:36:50;99292.50;;;-6.59;51.85
37792;BME280;29527;55.766;37.570;2023-11-21T02:39:17;99350.09;;;-6.29;52.15
37792;BME280;29527;55.766;37.570;2023-11-21T02:41:44;99339.72;;;-6.30;51.76
37792;BME280;29527;55.766;37.570;2023-11-21T02:44:10;99339.81;;;-6.35;51.62
37792;BME280;29527;55.766;37.570;2023-11-21T02:46:36;99322.81;;;-6.55;51.59
37792;BME280;29527;55.766;37.570;2023-11-21T02:49:03;99350.44;;;-6.46;51.43
37792;BME280;29527;55.766;37.570;2023-11-21T02:51:30;99353.22;;;-6.57;51.12
37792;BME280;29527;55.766;37.570;2023-11-21T02:53:56;99354.94;;;-6.56;51.48
37792;BME280;29527;55.766;37.570;2023-11-21T02:56:26;99351.50;;;-6.58;51.59
37792;BME280;29527;55.766;37.570;2023-11-21T02:58:55;99360.34;;;-6.65;51.34
37792;BME280;29527;55.766;37.570;2023-11-21T03:01:20;99361.16;;;-6.63;51.72
37792;BME280;29527;55.766;37.570;2023-11-21T03:03:46;99281.41;;;-7.17;51.52
37792;BME280;29527;55.766;37.570;2023-11-21T03:06:13;99360.34;;;-6.67;52.05
37792;BME280;29527;55.766;37.570;2023-11-21T03:08:38;99362.06;;;-6.64;51.60
37792;BME280;29527;55.766;37.570;2023-11-21T03:11:04;99320.94;;;-6.95;51.61
37792;BME280;29527;55.766;37.570;2023-11-21T03:13:30;99369.09;;;-6.69;51.39
37792;BME280;29527;55.766;37.570;2023-11-21T03:15:55;99365.72;;;-6.74;51.97
37792;BME280;29527;55.766;37.570;2023-11-21T03:18:21;99376.09;;;-6.73;51.76
37792;BME280;29527;55.766;37.570;2023-11-21T03:20:52;99367.44;;;-6.73;51.70
37792;BME280;29527;55.766;37.570;2023-11-21T03:23:18;99368.34;;;-6.76;51.94
37792;BME280;29527;55.766;37.570;2023-11-21T03:25:43;99376.13;;;-6.74;52.08
37792;BME280;29527;55.766;37.570;2023-11-21T03:28:10;99368.16;;;-6.67;52.09
37792;BME280;29527;55.766;37.570;2023-11-21T03:30:36;99365.47;;;-6.62;52.34
37792;BME280;29527;55.766;37.570;2023-11-21T03:33:02;99354.41;;;-6.73;52.02
37792;BME280;29527;55.766;37.570;2023-11-21T03:35:27;99354.44;;;-6.77;51.98
37792;BME280;29527;55.766;37.570;2023-11-21T03:37:53;99372.47;;;-6.64;52.20
37792;BME280;29527;55.766;37.570;2023-11-21T03:40:19;99376.97;;;-6.74;52.25
37792;BME280;29527;55.766;37.570;2023-11-21T03:42:46;99381.34;;;-6.74;52.34
37792;BME280;29527;55.766;37.570;2023-11-21T03:45:12;99326.34;;;-7.08;52.23
37792;BME280;29527;55.766;37.570;2023-11-21T03:47:42;99382.72;;;-6.55;51.99
37792;BME280;29527;55.766;37.570;2023-11-21T03:50:09;99387.03;;;-6.54;52.62
37792;BME280;29527;55.766;37.570;2023-11-21T03:52:35;99389.50;;;-6.44;52.37
37792;BME280;29527;55.766;37.570;2023-11-21T03:55:01;99388.63;;;-6.45;52.08
37792;BME280;29527;55.766;37.570;2023-11-21T03:57:29;99376.47;;;-6.46;52.00
37792;BME280;29527;55.766;37.570;2023-11-21T03:59:54;99378.25;;;-6.48;52.21
37792;BME280;29527;55.766;37.570;2023-11-21T04:02:20;99382.66;;;-6.52;52.41
37792;BME280;29527;55.766;37.570;2023-11-21T04:04:45;99387.91;;;-6.55;52.62
37792;BME280;29527;55.766;37.570;2023-11-21T04:07:11;99382.72;;;-6.55;52.31
37792;BME280;29527;55.766;37.570;2023-11-21T04:09:39;99391.34;;;-6.53;52.68
37792;BME280;29527;55.766;37.570;2023-11-21T04:12:07;99383.41;;;-6.45;52.47
37792;BME280;29527;55.766;37.570;2023-11-21T04:14:34;99390.34;;;-6.44;52.53
37792;BME280;29527;55.766;37.570;2023-11-21T04:16:59;99379.28;;;-6.57;52.80
37792;BME280;29527;55.766;37.570;2023-11-21T04:19:25;99386.25;;;-6.59;52.84
37792;BME280;29527;55.766;37.570;2023-11-21T04:21:51;99391.63;;;-6.68;53.11
37792;BME280;29527;55.766;37.570;2023-11-21T04:24:16;99387.38;;;-6.72;53.18
37792;BME280;29527;55.766;37.570;2023-11-21T04:26:44;99384.66;;;-6.66;53.30
37792;BME280;29527;55.766;37.570;2023-11-21T04:29:09;99393.19;;;-6.58;53.10
37792;BME280;29527;55.766;37.570;2023-11-21T04:31:35;99387.91;;;-6.53;52.94
37792;BME280;29527;55.766;37.570;2023-11-21T04:34:01;99387.84;;;-6.50;53.31
37792;BME280;29527;55.766;37.570;2023-11-21T04:36:26;99384.47;;;-6.55;52.65
37792;BME280;29527;55.766;37.570;2023-11-21T04:38:52;99339.75;;;-6.81;53.26
37792;BME280;29527;55.766;37.570;2023-11-21T04:41:17;99398.16;;;-6.44;53.14
37792;BME280;29527;55.766;37.570;2023-11-21T04:43:43;99414.59;;;-6.42;52.95
37792;BME280;29527;55.766;37.570;2023-11-21T04:46:09;99413.72;;;-6.41;52.82
37792;BME280;29527;55.766;37.570;2023-11-21T04:48:34;99412.09;;;-6.46;53.16
37792;BME280;29527;55.766;37.570;2023-11-21T04:51:00;99415.59;;;-6.47;53.02
37792;BME280;29527;55.766;37.570;2023-11-21T04:53:25;99397.50;;;-6.57;53.41
37792;BME280;29527;55.766;37.570;2023-11-21T04:55:51;99421.69;;;-6.50;53.30
37792;BME280;29527;55.766;37.570;2023-11-21T04:58:17;99366.66;;;-6.80;53.49
37792;BME280;29527;55.766;37.570;2023-11-21T05:00:42;99425.19;;;-6.51;53.46
37792;BME280;29527;55.766;37.570;2023-11-21T05:03:09;99409.63;;;-6.56;53.25
37792;BME280;29527;55.766;37.570;2023-11-21T05:05:35;99425.19;;;-6.51;53.54
37792;BME280;29527;55.766;37.570;2023-11-21T05:08:00;99401.13;;;-6.66;53.28
37792;BME280;29527;55.766;37.570;2023-11-21T05:10:27;99428.63;;;-6.49;53.22
37792;BME280;29527;55.766;37.570;2023-11-21T05:12:52;99431.94;;;-6.39;53.33
37792;BME280;29527;55.766;37.570;2023-11-21T05:15:18;99425.84;;;-6.38;52.93
37792;BME280;29527;55.766;37.570;2023-11-21T05:17:45;99428.47;;;-6.40;53.32
37792;BME280;29527;55.766;37.570;2023-11-21T05:20:14;99439.69;;;-6.36;53.10
37792;BME280;29527;55.766;37.570;2023-11-21T05:22:43;99434.56;;;-6.41;53.21
37792;BME280;29527;55.766;37.570;2023-11-21T05:25:09;99427.69;;;-6.43;53.07
37792;BME280;29527;55.766;37.570;2023-11-21T05:27:35;99434.59;;;-6.42;53.35
37792;BME280;29527;55.766;37.570;2023-11-21T05:30:02;99429.34;;;-6.41;53.01
37792;BME280;29527;55.766;37.570;2023-11-21T05:32:32;99429.50;;;-6.49;53.27
37792;BME280;29527;55.766;37.570;2023-11-21T05:34:58;99368.41;;;-6.81;53.29
37792;BME280;29527;55.766;37.570;2023-11-21T05:37:24;99377.13;;;-6.83;53.41
37792;BME280;29527;55.766;37.570;2023-11-21T05:39:53;99421.06;;;-6.63;53.37
37792;BME280;29527;55.766;37.570;2023-11-21T05:42:22;99414.13;;;-6.64;53.39
37792;BME280;29527;55.766;37.570;2023-11-21T05:44:48;99411.50;;;-6.63;53.68
37792;BME280;29527;55.766;37.570;2023-11-21T05:47:14;99438.28;;;-6.56;53.61
37792;BME280;29527;55.766;37.570;2023-11-21T05:49:40;99376.25;;;-6.84;53.60
37792;BME280;29527;55.766;37.570;2023-11-21T05:52:06;99433.06;;;-6.56;53.79
37792;BME280;29527;55.766;37.570;2023-11-21T05:54:32;99432.94;;;-6.46;53.43
37792;BME280;29527;55.766;37.570;2023-11-21T05:56:58;99431.94;;;-6.38;53.27
37792;BME280;29527;55.766;37.570;2023-11-21T05:59:23;99391.41;;;-6.56;53.95
37792;BME280;29527;55.766;37.570;2023-11-21T06:01:49;99440.38;;;-6.25;53.10
37792;BME280;29527;55.766;37.570;2023-11-21T06:04:14;99429.16;;;-6.30;53.35
37792;BME280;29527;55.766;37.570;2023-11-21T06:06:40;99431.69;;;-6.24;53.64
37792;BME280;29527;55.766;37.570;2023-11-21T06:09:06;99435.13;;;-6.23;53.57
37792;BME280;29527;55.766;37.570;2023-11-21T06:11:34;99447.13;;;-6.13;53.50
37792;BME280;29527;55.766;37.570;2023-11-21T06:14:00;99443.50;;;-6.06;53.33
37792;BME280;29527;55.766;37.570;2023-11-21T06:16:26;99442.63;;;-6.06;53.90
37792;BME280;29527;55.766;37.570;2023-11-21T06:18:53;99458.91;;;-5.96;53.61
37792;BME280;29527;55.766;37.570;2023-11-21T06:21:18;99451.91;;;-5.93;53.44
37792;BME280;29527;55.766;37.570;2023-11-21T06:23:44;99456.03;;;-5.82;53.19
37792;BME280;29527;55.766;37.570;2023-11-21T06:26:10;99452.66;;;-5.86;53.28
37792;BME280;29527;55.766;37.570;2023-11-21T06:28:35;99436.91;;;-5.81;52.89
37792;BME280;29527;55.766;37.570;2023-11-21T06:31:02;99453.28;;;-5.74;53.33
37792;BME280;29527;55.766;37.570;2023-11-21T06:33:33;99449.63;;;-5.64;53.16
37792;BME280;29527;55.766;37.570;2023-11-21T06:36:00;99458.16;;;-5.57;53.39
37792;BME280;29527;55.766;37.570;2023-11-21T06:38:28;99439.97;;;-5.60;53.26
37792;BME280;29527;55.766;37.570;2023-11-21T06:40:58;99470.38;;;-5.58;52.68
37792;BME280;29527;55.766;37.570;2023-11-21T06:43:24;99448.00;;;-5.71;52.90
37792;BME280;29527;55.766;37.570;2023-11-21T06:45:49;99413.78;;;-5.98;53.23
37792;BME280;29527;55.766;37.570;2023-11-21T06:48:15;99472.31;;;-5.69;53.03
37792;BME280;29527;55.766;37.570;2023-11-21T06:50:41;99465.50;;;-5.75;53.10
37792;BME280;29527;55.766;37.570;2023-11-21T06:53:07;99463.03;;;-5.84;52.93
37792;BME280;29527;55.766;37.570;2023-11-21T06:55:33;99464.03;;;-5.90;52.91
37792;BME280;29527;55.766;37.570;2023-11-21T06:58:00;99464.75;;;-5.83;53.08
37792;BME280;29527;55.766;37.570;2023-11-21T07:00:26;99455.19;;;-5.83;52.59
37792;BME280;29527;55.766;37.570;2023-11-21T07:02:54;99413.19;;;-6.11;52.54
37792;BME280;29527;55.766;37.570;2023-11-21T07:05:22;99453.63;;;-5.90;52.69
37792;BME280;29527;55.766;37.570;2023-11-21T07:07:49;99458.59;;;-5.79;53.20
37792;BME280;29527;55.766;37.570;2023-11-21T07:10:15;99460.97;;;-5.67;53.12
37792;BME280;29527;55.766;37.570;2023-11-21T07:12:40;99457.59;;;-5.72;52.77
37792;BME280;29527;55.766;37.570;2023-11-21T07:15:07;99460.09;;;-5.67;52.80
37792;BME280;29527;55.766;37.570;2023-11-21T07:17:35;99467.84;;;-5.63;52.72
37792;BME280;29527;55.766;37.570;2023-11-21T07:20:02;99467.72;;;-5.56;52.46
37792;BME280;29527;55.766;37.570;2023-11-21T07:22:30;99469.25;;;-5.46;52.37
37792;BME280;29527;55.766;37.570;2023-11-21T07:24:56;99472.56;;;-5.38;52.36
37792;BME280;29527;55.766;37.570;2023-11-21T07:27:24;99471.72;;;-5.38;51.89
37792;BME280;29527;55.766;37.570;2023-11-21T07:29:50;99481.19;;;-5.34;51.71
37792;BME280;29527;55.766;37.570;2023-11-21T07:32:15;99471.66;;;-5.35;51.41
37792;BME280;29527;55.766;37.570;2023-11-21T07:34:41;99479.50;;;-5.37;51.78
37792;BME280;29527;55.766;37.570;2023-11-21T07:37:08;99475.28;;;-5.44;51.46
37792;BME280;29527;55.766;37.570;2023-11-21T07:39:36;99476.19;;;-5.45;52.02
37792;BME280;29527;55.766;37.570;2023-11-21T07:42:02;99477.91;;;-5.44;51.58
37792;BME280;29527;55.766;37.570;2023-11-21T07:44:28;99482.44;;;-5.52;51.38
37792;BME280;29527;55.766;37.570;2023-11-21T07:46:54;99468.59;;;-5.56;52.05
37792;BME280;29527;55.766;37.570;2023-11-21T07:49:24;99474.59;;;-5.52;51.57
37792;BME280;29527;55.766;37.570;2023-11-21T07:51:50;99473.66;;;-5.50;51.60
37792;BME280;29527;55.766;37.570;2023-11-21T07:54:16;99477.97;;;-5.47;51.40
37792;BME280;29527;55.766;37.570;2023-11-21T07:56:41;99472.69;;;-5.44;50.59
37792;BME280;29527;55.766;37.570;2023-11-21T07:59:08;99456.81;;;-5.35;51.15
37792;BME280;29527;55.766;37.570;2023-11-21T08:01:34;99461.59;;;-5.13;51.03
37792;BME280;29527;55.766;37.570;2023-11-21T08:03:59;99468.19;;;-4.96;50.72
37792;BME280;29527;55.766;37.570;2023-11-21T08:06:29;99468.69;;;-4.80;50.61
37792;BME280;29527;55.766;37.570;2023-11-21T08:08:56;99413.59;;;-5.07;50.24
37792;BME280;29527;55.766;37.570;2023-11-21T08:11:22;99428.06;;;-4.92;49.94
37792;BME280;29527;55.766;37.570;2023-11-21T08:13:48;99458.72;;;-4.64;49.66
37792;BME280;29527;55.766;37.570;2023-11-21T08:16:14;99449.34;;;-4.71;49.90
37792;BME280;29527;55.766;37.570;2023-11-21T08:18:40;99460.75;;;-4.76;49.87
37792;BME280;29527;55.766;37.570;2023-11-21T08:21:06;99459.16;;;-4.83;50.40
37792;BME280;29527;55.766;37.570;2023-11-21T08:23:34;99457.44;;;-4.84;50.44
37792;BME280;29527;55.766;37.570;2023-11-21T08:26:00;99467.78;;;-4.78;50.58
37792;BME280;29527;55.766;37.570;2023-11-21T08:28:27;99415.88;;;-4.93;50.52
37792;BME280;29527;55.766;37.570;2023-11-21T08:30:53;99452.50;;;-4.58;50.00
37792;BME280;29527;55.766;37.570;2023-11-21T08:33:19;99452.91;;;-4.39;50.49
37792;BME280;29527;55.766;37.570;2023-11-21T08:35:45;99407.78;;;-4.46;49.72
37792;BME280;29527;55.766;37.570;2023-11-21T08:38:12;99449.56;;;-4.11;48.98
37792;BME280;29527;55.766;37.570;2023-11-21T08:40:38;99448.03;;;-4.19;48.95
37792;BME280;29527;55.766;37.570;2023-11-21T08:43:04;99444.56;;;-4.19;48.68
37792;BME280;29527;55.766;37.570;2023-11-21T08:45:34;99440.25;;;-4.22;48.97
37792;BME280;29527;55.766;37.570;2023-11-21T08:48:01;99447.13;;;-4.18;48.93
37792;BME280;29527;55.766;37.570;2023-11-21T08:50:27;99424.31;;;-4.12;48.32
37792;BME280;29527;55.766;37.570;2023-11-21T08:52:53;99448.25;;;-3.93;48.83
37792;BME280;29527;55.766;37.570;2023-11-21T08:55:19;99446.56;;;-3.96;47.97
37792;BME280;29527;55.766;37.570;2023-11-21T08:57:45;99438.72;;;-3.96;48.44
37792;BME280;29527;55.766;37.570;2023-11-21T09:00:12;99434.47;;;-4.00;47.88
37792;BME280;29527;55.766;37.570;2023-11-21T09:02:43;99436.84;;;-4.24;48.20
37792;BME280;29527;55.766;37.570;2023-11-21T09:05:10;99433.94;;;-4.48;48.89
37792;BME280;29527;55.766;37.570;2023-11-21T09:07:38;99417.25;;;-4.77;48.32
37792;BME280;29527;55.766;37.570;2023-11-21T09:10:04;99464.50;;;-4.51;48.86
37792;BME280;29527;55.766;37.570;2023-11-21T09:12:33;99468.81;;;-4.49;48.75
37792;BME280;29527;55.766;37.570;2023-11-21T09:15:02;99467.75;;;-4.41;49.01
37792;BME280;29527;55.766;37.570;2023-11-21T09:17:31;99469.53;;;-4.42;48.45
37792;BME280;29527;55.766;37.570;2023-11-21T09:19:57;99455.84;;;-4.52;48.90
37792;BME280;29527;55.766;37.570;2023-11-21T09:22:23;99466.09;;;-4.44;48.88
37792;BME280;29527;55.766;37.570;2023-11-21T09:24:51;99462.97;;;-4.58;48.66
37792;BME280;29527;55.766;37.570;2023-11-21T09:27:17;99484.50;;;-4.49;48.67
37792;BME280;29527;55.766;37.570;2023-11-21T09:29:43;99481.00;;;-4.48;49.44
37792;BME280;29527;55.766;37.570;2023-11-21T09:32:09;99477.50;;;-4.48;50.06
37792;BME280;29527;55.766;37.570;2023-11-21T09:34:39;99468.97;;;-4.55;51.00
37792;BME280;29527;55.766;37.570;2023-11-21T09:37:05;99469.91;;;-4.59;50.96
37792;BME280;29527;55.766;37.570;2023-11-21T09:39:33;99476.69;;;-4.50;51.15
37792;BME280;29527;55.766;37.570;2023-11-21T09:42:23;99477.56;;;-4.50;50.23
37792;BME280;29527;55.766;37.570;2023-11-21T09:45:00;99480.00;;;-4.42;50.58
37792;BME280;29527;55.766;37.570;2023-11-21T09:47:35;99476.41;;;-4.39;50.01
37792;BME280;29527;55.766;37.570;2023-11-21T09:50:01;99473.81;;;-4.39;50.25
37792;BME280;29527;55.766;37.570;2023-11-21T09:52:31;99478.22;;;-4.41;50.31
37792;BME280;29527;55.766;37.570;2023-11-21T09:54:58;99490.53;;;-4.45;50.41
37792;BME280;29527;55.766;37.570;2023-11-21T09:57:26;99491.38;;;-4.44;50.60
37792;BME280;29527;55.766;37.570;2023-11-21T09:59:54;99483.69;;;-4.52;49.95
37792;BME280;29527;55.766;37.570;2023-11-21T10:02:27;99496.94;;;-4.60;49.54
37792;BME280;29527;55.766;37.570;2023-11-21T10:04:55;99491.72;;;-4.60;50.17
37792;BME280;29527;55.766;37.570;2023-11-21T10:07:22;99491.72;;;-4.60;50.13
37792;BME280;29527;55.766;37.570;2023-11-21T10:09:50;99444.59;;;-4.92;50.24
37792;BME280;29527;55.766;37.570;2023-11-21T10:12:16;99486.06;;;-4.79;50.16
37792;BME280;29527;55.766;37.570;2023-11-21T10:14:46;99498.03;;;-4.69;50.76
37792;BME280;29527;55.766;37.570;2023-11-21T10:17:14;99500.53;;;-4.64;51.50
37792;BME280;29527;55.766;37.570;2023-11-21T10:19:42;99496.00;;;-4.56;50.94
37792;BME280;29527;55.766;37.570;2023-11-21T10:22:08;99498.38;;;-4.47;50.72
37792;BME280;29527;55.766;37.570;2023-11-21T10:24:35;99499.19;;;-4.44;49.99
37792;BME280;29527;55.766;37.570;2023-11-21T10:27:01;99490.38;;;-4.40;49.93
37792;BME280;29527;55.766;37.570;2023-11-21T10:29:30;99454.38;;;-4.64;50.46
37792;BME280;29527;55.766;37.570;2023-11-21T10:31:59;99499.84;;;-4.36;49.96
37792;BME280;29527;55.766;37.570;2023-11-21T10:34:24;99442.25;;;-4.66;49.74
37792;BME280;29527;55.766;37.570;2023-11-21T10:36:52;99487.59;;;-4.33;49.42
37792;BME280;29527;55.766;37.570;2023-11-21T10:39:19;99488.47;;;-4.34;49.43
37792;BME280;29527;55.766;37.570;2023-11-21T10:41:47;99489.34;;;-4.33;49.13
37792;BME280;29527;55.766;37.570;2023-11-21T10:44:14;99496.41;;;-4.37;49.39
37792;BME280;29527;55.766;37.570;2023-11-21T10:46:49;99501.00;;;-4.48;49.21
37792;BME280;29527;55.766;37.570;2023-11-21T10:49:18;99499.47;;;-4.55;49.98
37792;BME280;29527;55.766;37.570;2023-11-21T10:51:45;99491.72;;;-4.60;49.76
37792;BME280;29527;55.766;37.570;2023-11-21T10:54:11;99497.78;;;-4.58;50.17
37792;BME280;29527;55.766;37.570;2023-11-21T10:56:39;99456.44;;;-4.77;50.23
37792;BME280;29527;55.766;37.570;2023-11-21T10:59:10;99497.56;;;-4.49;50.33
37792;BME280;29527;55.766;37.570;2023-11-21T11:01:45;99476.09;;;-4.62;50.08
37792;BME280;29527;55.766;37.570;2023-11-21T11:04:14;99489.06;;;-4.57;50.11
37792;BME280;29527;55.766;37.570;2023-11-21T11:06:48;99504.66;;;-4.54;49.79
37792;BME280;29527;55.766;37.570;2023-11-21T11:09:17;99496.94;;;-4.60;50.42
37792;BME280;29527;55.766;37.570;2023-11-21T11:11:43;99490.31;;;-4.73;50.46
37792;BME280;29527;55.766;37.570;2023-11-21T11:14:13;99493.88;;;-4.78;51.11
37792;BME280;29527;55.766;37.570;2023-11-21T11:16:40;99498.31;;;-4.81;51.37
37792;BME280;29527;55.766;37.570;2023-11-21T11:19:07;99499.22;;;-4.84;51.80
37792;BME280;29527;55.766;37.570;2023-11-21T11:24:56;99500.69;;;-4.70;52.40
37792;BME280;29527;55.766;37.570;2023-11-21T11:36:00;99525.00;;;-4.68;51.98
37792;BME280;29527;55.766;37.570;2023-11-21T11:38:32;99469.19;;;-5.02;52.33
37792;BME280;29527;55.766;37.570;2023-11-21T11:41:02;99520.91;;;-4.79;52.72
37792;BME280;29527;55.766;37.570;2023-11-21T11:43:29;99527.03;;;-4.80;53.15
37792;BME280;29527;55.766;37.570;2023-11-21T11:45:58;99529.59;;;-4.78;52.73
37792;BME280;29527;55.766;37.570;2023-11-21T11:48:25;99528.69;;;-4.77;52.90
37792;BME280;29527;55.766;37.570;2023-11-21T11:53:35;99513.00;;;-4.76;52.41
37792;BME280;29527;55.766;37.570;2023-11-21T11:58:47;99527.88;;;-4.79;51.74
37792;BME280;29527;55.766;37.570;2023-11-21T12:01:13;99510.78;;;-4.93;52.31
37792;BME280;29527;55.766;37.570;2023-11-21T12:03:39;99528.91;;;-4.88;52.26
37792;BME280;29527;55.766;37.570;2023-11-21T12:06:05;99531.69;;;-4.94;52.53
37792;BME280;29527;55.766;37.570;2023-11-21T12:08:32;99532.72;;;-5.01;52.10
37792;BME280;29527;55.766;37.570;2023-11-21T12:10:58;99545.88;;;-5.08;52.70
37792;BME280;29527;55.766;37.570;2023-11-21T12:13:24;99520.06;;;-5.22;52.71
37792;BME280;29527;55.766;37.570;2023-11-21T12:15:49;99534.06;;;-5.24;53.12
37792;BME280;29527;55.766;37.570;2023-11-21T12:18:16;99546.22;;;-5.25;52.96
37792;BME280;29527;55.766;37.570;2023-11-21T12:20:41;99507.69;;;-5.54;53.07
37792;BME280;29527;55.766;37.570;2023-11-21T12:23:08;99543.81;;;-5.34;53.10
37792;BME280;29527;55.766;37.570;2023-11-21T12:25:39;99498.38;;;-5.69;53.10
37792;BME280;29527;55.766;37.570;2023-11-21T12:28:06;99531.94;;;-5.49;53.80
37792;BME280;29527;55.766;37.570;2023-11-21T12:30:34;99555.44;;;-5.51;53.53
37792;BME280;29527;55.766;37.570;2023-11-21T12:33:04;99552.81;;;-5.51;52.81
37792;BME280;29527;55.766;37.570;2023-11-21T12:35:34;99552.88;;;-5.52;53.28
37792;BME280;29527;55.766;37.570;2023-11-21T12:38:02;99508.13;;;-5.79;53.00
37792;BME280;29527;55.766;37.570;2023-11-21T12:40:28;99557.25;;;-5.54;53.49
37792;BME280;29527;55.766;37.570;2023-11-21T12:42:56;99558.91;;;-5.50;53.35
37792;BME280;29527;55.766;37.570;2023-11-21T12:45:24;99557.91;;;-5.43;53.04
37792;BME280;29527;55.766;37.570;2023-11-21T12:48:00;99559.63;;;-5.42;52.78
37792;BME280;29527;55.766;37.570;2023-11-21T12:50:29;99552.88;;;-5.52;52.37
37792;BME280;29527;55.766;37.570;2023-11-21T12:53:04;99554.69;;;-5.57;52.76
37792;BME280;29527;55.766;37.570;2023-11-21T12:55:32;99554.78;;;-5.62;52.69
37792;BME280;29527;55.766;37.570;2023-11-21T12:58:01;99542.72;;;-5.68;52.28
37792;BME280;29527;55.766;37.570;2023-11-21T13:00:39;99549.53;;;-5.60;53.59
37792;BME280;29527;55.766;37.570;2023-11-21T13:03:06;99552.13;;;-5.59;53.11
37792;BME280;29527;55.766;37.570;2023-11-21T13:05:36;99555.56;;;-5.58;53.24